Thorsby, AL (35171)

03:39 AM CDT am 21. Oktober 2014 (GMT -0500)
Gentry Field Station | Change Station
CLOSE
Current Station
Persönliche Wetterstationen
Location: Jemison, AL
Höhe: 741 ft
Wetterstationen in der Umgebung

Höhe 741 ft 32.96 °N, 86.67 °W | Updated 1 second ago

Heiter
Heiter
52.1 °F
gefühlte 52.1 °F
N
0.0
Wind Wechselnd Wind aus West-Nordwest
Gusts 0.0 mph

Heute
Max. -- | schwach -- °F
--% Regenrisiko
Gestern
Max. -- | schwach -- °F
Precip. -- inch
6:55 AM 6:06 PM
Letztes Viertel, 6% visible
Druck 30.01 inch
Sichtweite 10.0 Meilen
Wolken Heiter
Taupunkt 50 °F
Feuchtigkeit 93%
Regen 0.00 inch
Schneehöhe Nicht verfügbar..
UV 0 von 12
Pollen 2.20 von 12
Ozon Gut
PM2.5 Mäßig
Flu Activity Sporadic
METAR KEET 210753Z AUTO 00000KT 10SM CLR 12/10 A3003 RMK AO2 SLP163 T01170100

More Conditions Fewer Conditions

Druck 30.01 inch
Sichtweite 10.0 Meilen
Wolken Heiter
Taupunkt 50 °F
Feuchtigkeit 93%
Regen 0.00 inch
Schneehöhe Nicht verfügbar..
UV 0 von 12
Pollen 2.20 von 12
Ozon Gut
PM2.5 Mäßig
Flu Activity Sporadic
METAR KEET 210753Z AUTO 00000KT 10SM CLR 12/10 A3003 RMK AO2 SLP163 T01170100

More Conditions Fewer Conditions

10-Day Weather Forecast

Almanac

Astronomie

Oct. 21, 2014 Aufgang Untergang
Genaue Zeit 06:55 CDT 18:06 CDT
Bürgerliche Dämmerung 06:30 CDT 18:32 CDT
Nautische Dämmerung 06:02 CDT 19:00 CDT
Astronomische Dämmerung 05:33 CDT 19:29 CDT
Mond 04:46 CDT 16:55 CDT
Länge des sichtbaren Lichts 12h 01m
Tageslänge
11h 11m
Tomorrow will be 1m 53s shorter.
Letztes Viertel, 6% of the Moon is Illuminated
Heute
Letztes Viertel
Okt 23
Neu
Okt 30
Erstes Viertel
Nov 6
Vollmond
Nov 14
Letztes Viertel

Heutige Rekorde

State Highs State Lows

Community

WunderPhotos

Upload Photos

1,763,619 Fotos hochgeladen!

Nearby

Luftqualität

  Luftqualität LQ Index Schadstoff
Gestern Gut
PM10
Gestern Gut
OZONE
Aktuell Mäßig
PM2.5
Aktuell Gut
OZONE
Dienstag Mäßig
PM2.5

Schneehöhe

Station Depth Höhe
Kein Neuschnee gemeldet.

Erdbebenaktivität

Stadt Distance Mag. Time & Date
No recent earthquake activity has been reported nearby.
Minimum magnitude displayed is 2.5.

küstennahe Wassertemperaturen

Ort Temperatur
Kein Stationsbericht

Wetterstationen in der Umgebung